createdAt,value
2022-11-24T00:01:20.290Z,96.09
2022-11-24T00:03:57.204Z,96.37
2022-11-24T00:06:25.278Z,96.30
2022-11-24T00:08:53.904Z,96.19
2022-11-24T00:11:24.043Z,96.18
2022-11-24T00:13:52.132Z,96.75
2022-11-24T00:16:23.219Z,95.95
2022-11-24T00:18:53.315Z,96.12
2022-11-24T00:21:21.887Z,95.54
2022-11-24T00:23:50.743Z,95.91
2022-11-24T00:26:24.012Z,95.26
2022-11-24T00:28:54.858Z,95.57
2022-11-24T00:31:25.117Z,95.59
2022-11-24T00:33:55.479Z,95.29
2022-11-24T00:36:25.717Z,94.78
2022-11-24T00:38:55.618Z,95.32
2022-11-24T00:41:24.297Z,94.98
2022-11-24T00:43:52.922Z,95.10
2022-11-24T00:46:21.384Z,95.32
2022-11-24T00:48:49.130Z,94.91
2022-11-24T00:51:18.388Z,94.92
2022-11-24T00:53:46.428Z,94.62
2022-11-24T00:56:14.155Z,94.50
2022-11-24T00:58:42.264Z,94.51
2022-11-24T01:01:17.704Z,94.41
2022-11-24T01:03:46.884Z,93.82
2022-11-24T01:06:18.137Z,93.80
2022-11-24T01:08:46.580Z,93.76
2022-11-24T01:11:16.104Z,94.50
2022-11-24T01:13:46.564Z,94.16
2022-11-24T01:16:17.692Z,94.65
2022-11-24T01:18:45.755Z,94.71
2022-11-24T01:21:14.334Z,94.32
2022-11-24T01:23:41.971Z,94.38
2022-11-24T01:26:12.160Z,94.93
2022-11-24T01:28:46.302Z,95.03
2022-11-24T01:31:15.665Z,94.91
2022-11-24T01:33:43.529Z,94.81
2022-11-24T01:36:11.783Z,94.51
2022-11-24T01:38:39.406Z,94.22
2022-11-24T01:41:11.527Z,94.11
2022-11-24T01:43:39.741Z,94.34
2022-11-24T01:46:31.017Z,94.37
2022-11-24T01:49:21.965Z,93.85
2022-11-24T01:51:55.666Z,94.65
2022-11-24T01:54:36.491Z,93.78
2022-11-24T01:57:17.878Z,93.80
2022-11-24T01:59:49.434Z,94.36
2022-11-24T02:02:22.195Z,93.54
2022-11-24T02:04:51.245Z,93.68
2022-11-24T02:07:19.186Z,93.92
2022-11-24T02:09:55.127Z,94.02
2022-11-24T02:12:26.264Z,93.93
2022-11-24T02:14:56.083Z,93.81
2022-11-24T02:17:23.647Z,93.72
2022-11-24T02:20:08.105Z,93.41
2022-11-24T02:22:57.205Z,93.29
2022-11-24T02:25:46.395Z,93.09
2022-11-24T02:28:18.187Z,93.52
2022-11-24T02:30:46.201Z,93.52
2022-11-24T02:33:14.355Z,93.58
2022-11-24T02:35:42.534Z,93.42
2022-11-24T02:38:14.195Z,93.36
2022-11-24T02:40:46.685Z,93.47
2022-11-24T02:43:18.084Z,93.55
2022-11-24T02:45:45.802Z,93.67
2022-11-24T02:48:16.737Z,93.75
2022-11-24T02:50:44.539Z,93.66
2022-11-24T02:53:12.100Z,93.66
2022-11-24T02:55:39.755Z,94.03
2022-11-24T02:58:07.336Z,94.13
2022-11-24T03:00:34.915Z,93.72
2022-11-24T03:03:03.074Z,94.32
2022-11-24T03:05:31.137Z,93.80
2022-11-24T03:07:58.800Z,93.85
2022-11-24T03:10:26.535Z,93.20
2022-11-24T03:12:54.854Z,93.18
2022-11-24T03:15:23.872Z,93.69
2022-11-24T03:17:54.990Z,93.63
2022-11-24T03:20:23.124Z,93.47
2022-11-24T03:22:50.753Z,93.65
2022-11-24T03:25:18.957Z,93.53
2022-11-24T03:27:47.197Z,93.35
2022-11-24T03:30:15.569Z,93.72
2022-11-24T03:32:43.280Z,93.70
2022-11-24T03:35:10.951Z,93.47
2022-11-24T03:37:38.657Z,93.47
2022-11-24T03:40:07.051Z,94.12
2022-11-24T03:42:34.639Z,93.78
2022-11-24T03:45:29.831Z,93.85
2022-11-24T03:47:52.856Z,94.32
2022-11-24T03:50:20.420Z,94.60
2022-11-24T03:52:48.047Z,94.92
2022-11-24T03:55:15.693Z,95.03
2022-11-24T03:57:43.237Z,94.69
2022-11-24T04:00:12.046Z,95.21
2022-11-24T04:02:39.677Z,94.86
2022-11-24T04:05:07.931Z,94.81
2022-11-24T04:07:35.701Z,95.00
2022-11-24T04:10:03.799Z,95.33
2022-11-24T04:12:46.509Z,94.61
2022-11-24T04:15:19.900Z,94.63
2022-11-24T04:17:49.460Z,94.48
2022-11-24T04:20:17.898Z,94.91
2022-11-24T04:22:45.484Z,94.75
2022-11-24T04:25:13.325Z,94.91
2022-11-24T04:27:40.928Z,94.73
2022-11-24T04:30:08.908Z,94.99
2022-11-24T04:32:36.962Z,94.79
2022-11-24T04:35:05.141Z,94.46
2022-11-24T04:37:32.723Z,95.00
2022-11-24T04:40:00.419Z,95.12
2022-11-24T04:42:28.046Z,94.76
2022-11-24T04:44:55.779Z,95.45
2022-11-24T04:47:25.093Z,95.17
2022-11-24T04:49:53.466Z,96.06
2022-11-24T04:52:23.271Z,95.48
2022-11-24T04:54:51.385Z,95.76
2022-11-24T04:57:24.347Z,95.58
2022-11-24T04:59:52.988Z,96.22
2022-11-24T05:02:21.404Z,95.71
2022-11-24T05:04:49.014Z,95.70
2022-11-24T05:07:19.122Z,95.79
2022-11-24T05:10:06.155Z,96.06
2022-11-24T05:12:33.776Z,95.83
2022-11-24T05:15:02.585Z,95.97
2022-11-24T05:17:32.831Z,96.00
2022-11-24T05:20:00.932Z,95.96
2022-11-24T05:22:29.979Z,96.44
2022-11-24T05:24:58.098Z,95.76
2022-11-24T05:27:25.737Z,96.22
2022-11-24T05:29:53.302Z,96.16
2022-11-24T05:32:20.825Z,96.29
2022-11-24T05:34:48.431Z,96.88
2022-11-24T05:37:16.114Z,97.02
2022-11-24T05:39:43.685Z,97.34
2022-11-24T05:42:30.314Z,96.98
2022-11-24T05:44:57.897Z,96.63
2022-11-24T05:47:25.765Z,96.91
2022-11-24T05:49:53.389Z,96.78
2022-11-24T05:52:20.941Z,96.53
2022-11-24T05:54:48.513Z,96.95
2022-11-24T05:57:17.638Z,96.88
2022-11-24T05:59:45.572Z,96.68
2022-11-24T06:02:14.163Z,96.64
2022-11-24T06:04:41.915Z,96.95
2022-11-24T06:07:13.794Z,96.72
2022-11-24T06:09:42.965Z,97.07
2022-11-24T06:12:12.640Z,96.55
2022-11-24T06:14:40.763Z,96.83
2022-11-24T06:17:09.965Z,96.47
2022-11-24T06:19:41.738Z,96.82
2022-11-24T06:22:09.704Z,96.87
2022-11-24T06:24:37.360Z,96.42
2022-11-24T06:27:04.907Z,96.58
2022-11-24T06:29:32.444Z,96.37
2022-11-24T06:32:00.170Z,96.23
2022-11-24T06:34:27.764Z,96.51
2022-11-24T06:36:55.340Z,96.00
2022-11-24T06:39:22.865Z,95.77
2022-11-24T06:41:50.917Z,95.79
2022-11-24T06:44:19.166Z,96.19
2022-11-24T06:46:46.983Z,95.58
2022-11-24T06:49:14.763Z,95.43
2022-11-24T06:51:42.815Z,95.86
2022-11-24T06:54:14.039Z,95.64
2022-11-24T06:56:41.613Z,96.10
2022-11-24T06:59:17.612Z,95.90
2022-11-24T07:01:45.710Z,95.78
2022-11-24T07:04:13.744Z,95.66
2022-11-24T07:06:41.724Z,95.29
2022-11-24T07:09:11.999Z,95.73
2022-11-24T07:11:40.390Z,95.44
2022-11-24T07:14:08.613Z,95.43
2022-11-24T07:16:36.620Z,95.57
2022-11-24T07:19:04.606Z,95.34
2022-11-24T07:21:32.702Z,94.84
2022-11-24T07:24:00.492Z,95.04
2022-11-24T07:26:28.132Z,94.99
2022-11-24T07:28:55.678Z,95.20
2022-11-24T07:31:26.676Z,94.89
2022-11-24T07:33:55.600Z,94.60
2022-11-24T07:36:23.483Z,94.09
2022-11-24T07:38:51.257Z,93.90
2022-11-24T07:41:19.864Z,94.39
2022-11-24T07:43:48.560Z,93.73
2022-11-24T07:46:19.168Z,93.80
2022-11-24T07:48:47.182Z,93.50
2022-11-24T07:51:15.664Z,93.56
2022-11-24T07:53:43.843Z,93.69
2022-11-24T07:56:12.655Z,93.39
2022-11-24T07:58:40.203Z,93.65
2022-11-24T08:01:13.502Z,93.63
2022-11-24T08:03:42.571Z,93.91
2022-11-24T08:06:31.873Z,93.79
2022-11-24T08:08:58.756Z,93.73
2022-11-24T08:11:26.829Z,94.10
2022-11-24T08:13:54.409Z,94.17
2022-11-24T08:16:22.059Z,94.05
2022-11-24T08:18:51.779Z,94.11
2022-11-24T08:21:20.872Z,94.18
2022-11-24T08:23:49.210Z,94.14
2022-11-24T08:26:18.981Z,94.19
2022-11-24T08:28:47.921Z,94.29
2022-11-24T08:31:20.809Z,94.74
2022-11-24T08:33:48.992Z,94.48
2022-11-24T08:36:18.803Z,94.60
2022-11-24T08:38:49.908Z,94.42
2022-11-24T08:41:17.921Z,94.82
2022-11-24T08:43:45.501Z,95.05
2022-11-24T08:46:17.168Z,94.36
2022-11-24T08:48:50.244Z,94.60
2022-11-24T08:51:21.307Z,95.13
2022-11-24T08:53:49.049Z,94.80
2022-11-24T08:56:17.002Z,95.01
2022-11-24T08:58:48.458Z,94.36
2022-11-24T09:01:17.884Z,94.42
2022-11-24T09:03:50.668Z,94.21
2022-11-24T09:06:23.199Z,94.21
2022-11-24T09:08:55.679Z,94.58
2022-11-24T09:11:25.062Z,94.36
2022-11-24T09:13:53.878Z,94.50
2022-11-24T09:16:26.042Z,94.98
2022-11-24T09:18:59.720Z,94.33
2022-11-24T09:21:28.334Z,94.31
2022-11-24T09:23:56.093Z,94.22
2022-11-24T09:26:26.451Z,93.88
2022-11-24T09:28:55.702Z,94.04
2022-11-24T09:31:30.557Z,94.00
2022-11-24T09:33:59.567Z,94.46
2022-11-24T09:36:28.037Z,94.02
2022-11-24T09:38:55.936Z,93.85
2022-11-24T09:41:49.824Z,93.18
2022-11-24T09:44:26.893Z,93.83
2022-11-24T09:47:14.646Z,94.04
2022-11-24T09:49:54.456Z,94.12
2022-11-24T09:52:50.353Z,94.00
2022-11-24T09:55:42.289Z,95.19
2022-11-24T09:58:17.693Z,94.85
2022-11-24T10:00:48.751Z,95.11
2022-11-24T10:03:30.572Z,95.24
2022-11-24T10:05:59.528Z,95.08
2022-11-24T10:09:05.695Z,94.88
2022-11-24T10:11:42.380Z,95.74
2022-11-24T10:14:31.820Z,95.77
2022-11-24T10:17:21.575Z,95.72
2022-11-24T10:19:58.275Z,95.35
2022-11-24T10:23:04.297Z,94.24
2022-11-24T10:25:42.602Z,94.83
2022-11-24T10:28:14.798Z,94.58
2022-11-24T10:30:43.479Z,94.38
2022-11-24T10:33:28.706Z,94.05
2022-11-24T10:36:09.693Z,93.91
2022-11-24T10:38:56.756Z,94.12
2022-11-24T10:41:37.735Z,94.65
2022-11-24T10:44:05.337Z,94.84
2022-11-24T10:46:39.029Z,94.15
2022-11-24T10:49:07.047Z,94.15
2022-11-24T10:52:11.438Z,94.16
2022-11-24T10:54:56.163Z,94.63
2022-11-24T10:57:38.463Z,94.42
2022-11-24T11:00:21.392Z,94.11
2022-11-24T11:02:50.743Z,95.07
2022-11-24T11:05:31.823Z,93.85
2022-11-24T11:08:14.452Z,94.78
2022-11-24T11:10:46.345Z,94.44
2022-11-24T11:13:28.498Z,94.43
2022-11-24T11:15:57.911Z,94.29
2022-11-24T11:18:34.567Z,94.17
2022-11-24T11:21:03.850Z,93.49
2022-11-24T11:23:34.629Z,93.74
2022-11-24T11:26:38.725Z,92.84
2022-11-24T11:34:55.540Z,93.89
2022-11-24T11:37:27.796Z,93.34
2022-11-24T11:39:56.058Z,92.96
2022-11-24T11:43:01.852Z,93.12
2022-11-24T11:45:21.062Z,93.34
2022-11-24T11:47:51.248Z,93.45
2022-11-24T11:50:25.805Z,92.73
2022-11-24T11:53:10.659Z,93.72
2022-11-24T11:55:54.835Z,93.40
2022-11-24T11:58:34.598Z,93.32
2022-11-24T12:01:23.362Z,92.67
2022-11-24T12:04:09.374Z,93.26
2022-11-24T12:06:54.012Z,93.49
2022-11-24T12:09:49.831Z,92.70
2022-11-24T12:12:59.739Z,92.92
2022-11-24T12:15:32.634Z,92.92
2022-11-24T12:18:40.304Z,92.98
2022-11-24T12:21:53.569Z,92.21
2022-11-24T12:24:33.229Z,93.07
2022-11-24T12:27:10.088Z,92.43
2022-11-24T12:29:48.288Z,93.19
2022-11-24T12:32:52.860Z,93.04
2022-11-24T12:35:43.714Z,92.62
2022-11-24T12:38:45.379Z,92.54
2022-11-24T12:41:40.316Z,93.06
2022-11-24T12:44:11.560Z,92.95
2022-11-24T12:46:59.420Z,93.12
2022-11-24T12:49:45.714Z,93.46
2022-11-24T12:52:25.461Z,93.36
2022-11-24T12:54:54.475Z,93.26
2022-11-24T12:57:41.349Z,93.47
2022-11-24T13:00:57.125Z,92.57
2022-11-24T13:03:39.888Z,93.28
2022-11-24T13:06:25.685Z,93.28
2022-11-24T13:08:53.663Z,94.00
2022-11-24T13:11:21.138Z,93.34
2022-11-24T13:14:06.240Z,93.21
2022-11-24T13:16:37.213Z,94.32
2022-11-24T13:19:29.133Z,94.15
2022-11-24T13:22:13.891Z,94.57
2022-11-24T13:24:43.173Z,94.72
2022-11-24T13:27:13.517Z,94.77
2022-11-24T13:29:46.497Z,94.33
2022-11-24T13:32:17.819Z,94.46
2022-11-24T13:34:55.304Z,93.96
2022-11-24T13:37:31.699Z,93.23
2022-11-24T13:40:23.192Z,92.95
2022-11-24T13:42:57.683Z,93.53
2022-11-24T13:45:40.302Z,93.65
2022-11-24T13:48:21.444Z,92.46
2022-11-24T13:50:49.631Z,93.91
2022-11-24T13:53:38.550Z,92.90
2022-11-24T13:56:22.723Z,92.71
2022-11-24T13:58:53.967Z,93.67
2022-11-24T14:01:32.527Z,92.94
2022-11-24T14:04:35.232Z,93.66
2022-11-24T14:07:09.506Z,94.26
2022-11-24T14:09:43.701Z,94.50
2022-11-24T14:12:27.978Z,93.92
2022-11-24T14:15:23.598Z,94.20
2022-11-24T14:17:51.338Z,94.95
2022-11-24T14:20:28.312Z,94.50
2022-11-24T14:22:56.245Z,94.35
2022-11-24T14:25:31.031Z,94.08
2022-11-24T14:28:00.425Z,93.74
2022-11-24T14:30:28.374Z,93.38
2022-11-24T14:33:01.540Z,93.57
2022-11-24T14:35:31.808Z,93.80
2022-11-24T14:38:04.794Z,93.40
2022-11-24T14:40:54.737Z,93.42
2022-11-24T14:43:31.554Z,93.76
2022-11-24T14:46:09.942Z,93.44
2022-11-24T14:48:48.765Z,93.39
2022-11-24T14:51:25.274Z,93.40
2022-11-24T14:53:58.020Z,93.67
2022-11-24T14:56:50.721Z,93.64
2022-11-24T14:59:24.163Z,93.76
2022-11-24T15:01:52.490Z,93.51
2022-11-24T15:04:54.185Z,93.73
2022-11-24T15:07:24.184Z,93.58
2022-11-24T15:09:58.527Z,93.19
2022-11-24T15:12:37.903Z,93.72
2022-11-24T15:15:15.102Z,93.96
2022-11-24T15:17:53.218Z,93.91
2022-11-24T15:20:41.788Z,94.45
2022-11-24T15:23:12.136Z,94.68
2022-11-24T15:25:39.751Z,93.90
2022-11-24T15:28:08.722Z,94.25
2022-11-24T15:30:37.550Z,94.20
2022-11-24T15:33:14.639Z,93.47
2022-11-24T15:35:43.141Z,93.72
2022-11-24T15:38:10.779Z,94.12
2022-11-24T15:40:39.741Z,93.57
2022-11-24T15:43:32.098Z,92.79
2022-11-24T15:46:01.395Z,93.29
2022-11-24T15:48:29.631Z,92.96
2022-11-24T15:50:58.920Z,94.07
2022-11-24T15:53:32.183Z,93.49
2022-11-24T15:56:01.718Z,93.04
2022-11-24T15:58:29.361Z,92.81
2022-11-24T16:00:57.124Z,92.81
2022-11-24T16:03:46.491Z,92.50
2022-11-24T16:06:20.586Z,92.90
2022-11-24T16:08:51.194Z,92.27
2022-11-24T16:11:18.765Z,92.97
2022-11-24T16:13:51.930Z,92.42
2022-11-24T16:16:22.732Z,92.42
2022-11-24T16:18:50.747Z,93.15
2022-11-24T16:21:18.328Z,93.24
2022-11-24T16:23:46.665Z,93.13
2022-11-24T16:26:14.369Z,92.49
2022-11-24T16:28:42.915Z,93.33
2022-11-24T16:31:10.473Z,92.80
2022-11-24T16:33:40.800Z,92.57
2022-11-24T16:36:08.840Z,92.73
2022-11-24T16:38:36.440Z,92.95
2022-11-24T16:41:04.100Z,92.60
2022-11-24T16:43:31.701Z,92.32
2022-11-24T16:46:23.000Z,92.04
2022-11-24T16:48:53.031Z,92.50
2022-11-24T16:51:22.600Z,92.03
2022-11-24T16:53:58.561Z,92.68
2022-11-24T16:56:27.564Z,92.12
2022-11-24T16:58:55.417Z,93.14
2022-11-24T17:01:23.253Z,92.11
2022-11-24T17:03:50.922Z,92.76
2022-11-24T17:06:19.137Z,92.73
2022-11-24T17:08:47.694Z,92.02
2022-11-24T17:11:16.617Z,92.32
2022-11-24T17:13:45.694Z,91.99
2022-11-24T17:16:16.554Z,92.07
2022-11-24T17:18:44.763Z,92.74
2022-11-24T17:21:14.862Z,92.07
2022-11-24T17:23:42.623Z,92.50
2022-11-24T17:26:18.931Z,91.98
2022-11-24T17:28:46.622Z,92.54
2022-11-24T17:31:17.182Z,92.51
2022-11-24T17:33:44.849Z,92.36
2022-11-24T17:36:12.460Z,92.56
2022-11-24T17:38:40.076Z,92.61
2022-11-24T17:41:07.892Z,92.43
2022-11-24T17:43:35.563Z,92.34
2022-11-24T17:46:04.404Z,92.57
2022-11-24T17:48:32.830Z,92.03
2022-11-24T17:51:27.404Z,92.30
2022-11-24T17:53:57.374Z,92.27
2022-11-24T17:56:27.288Z,92.57
2022-11-24T17:58:59.742Z,91.58
2022-11-24T18:01:32.433Z,92.31
2022-11-24T18:04:00.187Z,91.88
2022-11-24T18:06:28.982Z,92.13
2022-11-24T18:08:57.822Z,92.30
2022-11-24T18:11:31.492Z,92.37
2022-11-24T18:14:02.530Z,92.24
2022-11-24T18:16:35.055Z,92.87
2022-11-24T18:19:09.326Z,92.80
2022-11-24T18:21:41.882Z,92.46
2022-11-24T18:24:11.195Z,93.24
2022-11-24T18:26:40.451Z,92.67
2022-11-24T18:29:08.157Z,92.77
2022-11-24T18:31:36.288Z,92.83
2022-11-24T18:34:05.654Z,92.58
2022-11-24T18:36:33.937Z,93.29
2022-11-24T18:39:03.404Z,92.99
2022-11-24T18:41:31.920Z,92.67
2022-11-24T18:44:02.533Z,93.04
2022-11-24T18:46:30.213Z,93.14
2022-11-24T18:48:57.832Z,92.89
2022-11-24T18:51:25.478Z,93.18
2022-11-24T18:54:00.135Z,93.09
2022-11-24T18:56:28.062Z,93.15
2022-11-24T18:58:56.524Z,93.35
2022-11-24T19:01:27.763Z,92.97
2022-11-24T19:03:57.939Z,93.22
2022-11-24T19:06:32.072Z,93.21
2022-11-24T19:09:05.316Z,92.92
2022-11-24T19:11:35.895Z,92.48
2022-11-24T19:14:06.497Z,92.13
2022-11-24T19:16:35.098Z,92.39
2022-11-24T19:19:03.866Z,92.10
2022-11-24T19:21:33.437Z,91.44
2022-11-24T19:24:05.306Z,91.15
2022-11-24T19:26:37.462Z,91.46
2022-11-24T19:29:06.227Z,90.76
2022-11-24T19:31:35.098Z,90.92
2022-11-24T19:34:03.642Z,90.89
2022-11-24T19:36:31.727Z,90.42
2022-11-24T19:38:59.940Z,90.84
2022-11-24T19:41:30.220Z,90.74
2022-11-24T19:43:58.849Z,91.01
2022-11-24T19:46:29.631Z,90.41
2022-11-24T19:49:00.535Z,90.20
2022-11-24T19:51:33.192Z,90.17
2022-11-24T19:54:01.363Z,89.98
2022-11-24T19:56:31.466Z,89.65
2022-11-24T19:58:59.136Z,89.82
2022-11-24T20:01:30.129Z,89.52
2022-11-24T20:04:06.342Z,89.68
2022-11-24T20:06:37.419Z,89.70
2022-11-24T20:09:07.883Z,89.60
2022-11-24T20:11:36.183Z,89.65
2022-11-24T20:14:04.192Z,89.96
2022-11-24T20:16:33.818Z,90.05
2022-11-24T20:19:07.372Z,89.92
2022-11-24T20:21:36.417Z,89.41
2022-11-24T20:24:07.557Z,89.78
2022-11-24T20:26:38.249Z,90.00
2022-11-24T20:29:06.464Z,89.96
2022-11-24T20:31:39.891Z,89.88
2022-11-24T20:34:08.742Z,90.18
2022-11-24T20:36:38.653Z,89.91
2022-11-24T20:39:09.501Z,90.35
2022-11-24T20:41:39.042Z,90.20
2022-11-24T20:44:10.807Z,90.39
2022-11-24T20:46:39.698Z,90.57
2022-11-24T20:49:08.717Z,90.61
2022-11-24T20:51:42.071Z,91.53
2022-11-24T20:54:11.512Z,91.46
2022-11-24T20:56:41.493Z,91.11
2022-11-24T20:59:16.072Z,91.23
2022-11-24T21:01:46.065Z,91.15
2022-11-24T21:04:17.693Z,91.84
2022-11-24T21:06:45.992Z,91.54
2022-11-24T21:09:13.592Z,91.92
2022-11-24T21:11:41.514Z,91.71
2022-11-24T21:14:09.786Z,91.73
2022-11-24T21:16:39.495Z,92.02
2022-11-24T21:19:17.483Z,91.86
2022-11-24T21:21:47.648Z,92.23
2022-11-24T21:24:17.585Z,92.58
2022-11-24T21:26:51.862Z,92.01
2022-11-24T21:29:22.461Z,91.92
2022-11-24T21:31:50.329Z,92.39
2022-11-24T21:34:19.280Z,91.72
2022-11-24T21:36:47.372Z,92.19
2022-11-24T21:39:15.648Z,92.45
2022-11-24T21:41:43.741Z,92.62
2022-11-24T21:44:13.508Z,92.39
2022-11-24T21:46:45.925Z,92.57
2022-11-24T21:49:17.085Z,91.97
2022-11-24T21:51:44.616Z,92.55
2022-11-24T21:54:12.187Z,92.49
2022-11-24T21:56:39.713Z,92.47
2022-11-24T21:59:07.352Z,92.39
2022-11-24T22:01:35.016Z,92.52
2022-11-24T22:04:03.292Z,92.05
2022-11-24T22:06:32.101Z,92.51
2022-11-24T22:08:59.645Z,92.66
2022-11-24T22:11:27.149Z,92.46
2022-11-24T22:13:54.818Z,92.91
2022-11-24T22:16:24.287Z,93.35
2022-11-24T22:18:52.220Z,93.26
2022-11-24T22:21:33.601Z,93.62
2022-11-24T22:24:01.603Z,93.80
2022-11-24T22:26:30.049Z,94.07
2022-11-24T22:28:58.690Z,93.99
2022-11-24T22:31:28.588Z,94.00
2022-11-24T22:33:57.411Z,93.61
2022-11-24T22:36:28.903Z,94.33
2022-11-24T22:38:58.885Z,93.82
2022-11-24T22:41:26.477Z,93.76
2022-11-24T22:43:54.303Z,94.49
2022-11-24T22:46:26.448Z,93.57
2022-11-24T22:48:55.232Z,93.87
2022-11-24T22:51:26.369Z,94.01
2022-11-24T22:53:59.534Z,94.52
2022-11-24T22:56:32.549Z,93.90
2022-11-24T22:59:01.458Z,94.88
2022-11-24T23:01:29.911Z,94.43
2022-11-24T23:03:58.045Z,94.33
2022-11-24T23:06:28.800Z,94.57
2022-11-24T23:08:58.357Z,94.68
2022-11-24T23:11:37.980Z,94.96
2022-11-24T23:14:11.808Z,94.67
2022-11-24T23:16:39.659Z,95.45
2022-11-24T23:19:07.357Z,94.87
2022-11-24T23:21:38.569Z,94.74
2022-11-24T23:24:07.171Z,95.22
2022-11-24T23:26:37.200Z,95.50
2022-11-24T23:29:05.773Z,94.89
2022-11-24T23:31:33.460Z,95.45
2022-11-24T23:34:02.626Z,95.12
2022-11-24T23:36:31.110Z,95.12
2022-11-24T23:39:07.004Z,94.86
2022-11-24T23:41:34.912Z,95.12
2022-11-24T23:44:02.699Z,94.86
2022-11-24T23:46:30.552Z,94.77
2022-11-24T23:48:58.144Z,94.61
2022-11-24T23:51:28.212Z,94.71
2022-11-24T23:53:56.962Z,94.67
2022-11-24T23:56:33.258Z,94.40
2022-11-24T23:59:03.007Z,94.13
